Time;durP1;ratioP1;P1;durP2;ratioP2;P2;SDS_P1;SDS_P2;PMS_P1;PMS_P2;Temp;Humidity;BMP_temperature;BMP_pressure;BME280_temperature;BME280_humidity;BME280_pressure;Samples;Min_cycle;Max_cycle;Signal;HPM_P1;HPM_P2
2022/11/25 00:01:48;;;;;;;;;;;;;;;;;;4965008;29;20390;-81
2022/11/25 00:04:13;;;;;;;;;;;;;;;;;;4967114;28;19966;-80
2022/11/25 00:06:39;;;;;;;;;;;;;;;;;;4963226;28;19918;-79
2022/11/25 00:09:04;;;;;;;;;;;;;;;;;;4960066;29;19921;-79
2022/11/25 00:11:29;;;;;;;;;;;;;;;;;;4960107;29;20397;-79
2022/11/25 00:13:55;;;;;;;;;;;;;;;;;;4957472;29;20001;-80
2022/11/25 00:16:20;;;;;;;;;;;;;;;;;;4958871;29;20275;-80
2022/11/25 00:18:46;;;;;;;;;;;;;;;;;;4941550;29;19919;-79
2022/11/25 00:21:11;;;;;;;;;;;;;;;;;;4957705;29;19914;-79
2022/11/25 00:23:36;;;;;;;;;;;;;;;;;;4958077;28;19962;-79
2022/11/25 00:26:02;;;;;;;;;;;;;;;;;;4957684;29;20307;-80
2022/11/25 00:28:29;;;;;;;;;;;;;;;;;;4956007;29;20192;-79
2022/11/25 00:30:54;;;;;;;;;;;;;;;;;;4940380;29;19918;-79
2022/11/25 00:33:20;;;;;;;;;;;;;;;;;;4924509;29;19922;-79
2022/11/25 00:35:45;;;;;;;;;;;;;;;;;;4956193;29;19961;-79
2022/11/25 00:38:10;;;;;;;;;;;;;;;;;;4938808;29;19957;-79
2022/11/25 00:40:36;;;;;;;;;;;;;;;;;;4938709;29;19914;-79
2022/11/25 00:45:45;;;;;;;;;;;;;;;;;;4956492;29;19918;-79
2022/11/25 00:48:11;;;;;;;;;;;;;;;;;;4946489;29;19921;-79
2022/11/25 00:50:36;;;;;;;;;;;;;;;;;;4945875;29;19914;-79
2022/11/25 00:53:01;;;;;;;;;;;;;;;;;;4958531;29;19914;-80
2022/11/25 00:56:11;;;;;;;;;;;;;;;;;;4958794;29;19918;-81
2022/11/25 00:58:12;;;;;;;;;;;;;;;;;;4961872;29;19946;-79
2022/11/25 01:00:37;;;;;;;;;;;;;;;;;;4961945;29;20263;-79
2022/11/25 01:03:03;;;;;;;;;;;;;;;;;;4957282;28;19921;-80
2022/11/25 01:05:31;;;;;;;;;;;;;;;;;;4958181;29;20443;-79
2022/11/25 01:07:56;;;;;;;;;;;;;;;;;;4959296;29;19950;-79
2022/11/25 01:10:21;;;;;;;;;;;;;;;;;;4959542;29;19914;-80
2022/11/25 01:12:47;;;;;;;;;;;;;;;;;;4957765;29;20420;-79
2022/11/25 01:15:14;;;;;;;;;;;;;;;;;;4957239;29;19937;-79
2022/11/25 01:17:40;;;;;;;;;;;;;;;;;;4959176;29;20374;-80
2022/11/25 01:20:05;;;;;;;;;;;;;;;;;;4957786;29;20058;-80
2022/11/25 01:22:31;;;;;;;;;;;;;;;;;;4957978;29;20318;-80
2022/11/25 01:24:56;;;;;;;;;;;;;;;;;;4958103;29;19997;-80
2022/11/25 01:27:21;;;;;;;;;;;;;;;;;;4941747;29;19915;-80
2022/11/25 01:29:47;;;;;;;;;;;;;;;;;;4958250;29;19982;-80
2022/11/25 01:32:13;;;;;;;;;;;;;;;;;;4958469;29;20386;-79
2022/11/25 01:34:38;;;;;;;;;;;;;;;;;;4959471;29;20009;-79
2022/11/25 01:37:04;;;;;;;;;;;;;;;;;;4958885;29;19918;-80
2022/11/25 01:39:29;;;;;;;;;;;;;;;;;;4959838;28;19961;-79
2022/11/25 01:41:55;;;;;;;;;;;;;;;;;;4958396;29;20402;-79
2022/11/25 01:44:20;;;;;;;;;;;;;;;;;;4959415;29;20374;-81
2022/11/25 01:46:45;;;;;;;;;;;;;;;;;;4960692;29;19958;-80
2022/11/25 01:49:11;;;;;;;;;;;;;;;;;;4961921;29;20294;-80
2022/11/25 01:51:36;;;;;;;;;;;;;;;;;;4961173;29;19921;-78
2022/11/25 01:54:04;;;;;;;;;;;;;;;;;;4943683;29;19950;-79
2022/11/25 01:56:30;;;;;;;;;;;;;;;;;;4958960;29;20018;-80
2022/11/25 01:58:57;;;;;;;;;;;;;;;;;;4958065;29;19918;-78
2022/11/25 02:01:22;;;;;;;;;;;;;;;;;;4959660;29;19986;-79
2022/11/25 02:03:48;;;;;;;;;;;;;;;;;;4958145;29;19973;-79
2022/11/25 02:06:15;;;;;;;;;;;;;;;;;;4958370;29;19919;-80
2022/11/25 02:08:40;;;;;;;;;;;;;;;;;;4961009;29;19914;-80
2022/11/25 02:11:05;;;;;;;;;;;;;;;;;;4960191;29;19918;-80
2022/11/25 02:13:31;;;;;;;;;;;;;;;;;;4959515;29;20349;-80
2022/11/25 02:15:56;;;;;;;;;;;;;;;;;;4958756;28;19922;-80
2022/11/25 02:18:23;;;;;;;;;;;;;;;;;;4958245;29;19919;-80
2022/11/25 02:20:48;;;;;;;;;;;;;;;;;;4941784;29;20400;-80
2022/11/25 02:23:14;;;;;;;;;;;;;;;;;;4943951;29;19922;-80
2022/11/25 02:25:41;;;;;;;;;;;;;;;;;;4926989;29;20314;-80
2022/11/25 02:28:11;;;;;;;;;;;;;;;;;;4958430;29;20390;-80
2022/11/25 02:30:36;;;;;;;;;;;;;;;;;;4941186;29;19930;-80
2022/11/25 02:33:02;;;;;;;;;;;;;;;;;;4940960;29;19914;-80
2022/11/25 02:35:27;;;;;;;;;;;;;;;;;;4956805;29;19974;-80
2022/11/25 02:37:53;;;;;;;;;;;;;;;;;;4956765;29;19966;-80
2022/11/25 02:40:18;;;;;;;;;;;;;;;;;;4942147;29;20282;-80
2022/11/25 02:42:43;;;;;;;;;;;;;;;;;;4956982;29;19914;-80
2022/11/25 02:45:09;;;;;;;;;;;;;;;;;;4957142;29;19914;-80
2022/11/25 02:47:34;;;;;;;;;;;;;;;;;;4958168;29;19915;-80
2022/11/25 02:50:00;;;;;;;;;;;;;;;;;;4958192;29;20374;-80
2022/11/25 02:52:25;;;;;;;;;;;;;;;;;;4958058;29;19990;-80
2022/11/25 02:54:50;;;;;;;;;;;;;;;;;;4959249;29;19914;-80
2022/11/25 02:57:16;;;;;;;;;;;;;;;;;;4957924;28;19965;-79
2022/11/25 02:59:41;;;;;;;;;;;;;;;;;;4957171;29;19918;-80
2022/11/25 03:02:06;;;;;;;;;;;;;;;;;;4956806;29;20405;-80
2022/11/25 03:04:32;;;;;;;;;;;;;;;;;;4957535;29;19994;-79
2022/11/25 03:06:57;;;;;;;;;;;;;;;;;;4958548;29;19974;-80
2022/11/25 03:09:23;;;;;;;;;;;;;;;;;;4958860;29;20264;-80
2022/11/25 03:14:33;;;;;;;;;;;;;;;;;;4963659;29;20382;-80
2022/11/25 03:16:58;;;;;;;;;;;;;;;;;;4965042;29;19914;-78
2022/11/25 03:19:25;;;;;;;;;;;;;;;;;;4956811;29;19915;-80
2022/11/25 03:21:50;;;;;;;;;;;;;;;;;;4954958;29;19921;-79
2022/11/25 03:24:17;;;;;;;;;;;;;;;;;;4955202;29;19963;-80
2022/11/25 03:26:45;;;;;;;;;;;;;;;;;;4954673;28;19914;-79
2022/11/25 03:29:11;;;;;;;;;;;;;;;;;;4956006;29;20005;-80
2022/11/25 03:31:36;;;;;;;;;;;;;;;;;;4956331;29;20007;-81
2022/11/25 03:34:01;;;;;;;;;;;;;;;;;;4939560;29;20400;-80
2022/11/25 03:36:27;;;;;;;;;;;;;;;;;;4956046;29;19918;-79
2022/11/25 03:38:52;;;;;;;;;;;;;;;;;;4956522;29;20275;-79
2022/11/25 03:41:17;;;;;;;;;;;;;;;;;;4957199;29;19960;-79
2022/11/25 03:43:43;;;;;;;;;;;;;;;;;;4956477;29;19911;-80
2022/11/25 03:46:08;;;;;;;;;;;;;;;;;;4954689;29;19921;-79
2022/11/25 03:48:34;;;;;;;;;;;;;;;;;;4955592;29;20349;-80
2022/11/25 03:50:59;;;;;;;;;;;;;;;;;;4957382;28;20402;-80
2022/11/25 03:53:26;;;;;;;;;;;;;;;;;;4956923;29;20378;-80
2022/11/25 03:55:51;;;;;;;;;;;;;;;;;;4958184;29;19914;-80
2022/11/25 03:58:19;;;;;;;;;;;;;;;;;;4956519;29;19918;-80
2022/11/25 04:00:44;;;;;;;;;;;;;;;;;;4957318;29;20263;-79
2022/11/25 04:03:11;;;;;;;;;;;;;;;;;;4956498;29;20309;-79
2022/11/25 04:05:36;;;;;;;;;;;;;;;;;;4941832;29;19919;-80
2022/11/25 04:08:05;;;;;;;;;;;;;;;;;;4957966;29;19914;-80
2022/11/25 04:10:31;;;;;;;;;;;;;;;;;;4957279;29;19918;-80
2022/11/25 04:12:57;;;;;;;;;;;;;;;;;;4957066;29;20618;-79
2022/11/25 04:15:32;;;;;;;;;;;;;;;;;;4958435;29;19934;-80
2022/11/25 04:17:58;;;;;;;;;;;;;;;;;;4941955;29;19922;-80
2022/11/25 04:20:23;;;;;;;;;;;;;;;;;;4958576;29;19922;-80
2022/11/25 04:23:02;;;;;;;;;;;;;;;;;;4963188;29;19921;-80
2022/11/25 04:25:27;;;;;;;;;;;;;;;;;;4962262;29;19945;-80
2022/11/25 04:27:53;;;;;;;;;;;;;;;;;;4956030;29;20366;-79
2022/11/25 04:30:24;;;;;;;;;;;;;;;;;;4955823;29;19915;-79
2022/11/25 04:32:49;;;;;;;;;;;;;;;;;;4956930;29;20005;-79
2022/11/25 04:35:15;;;;;;;;;;;;;;;;;;4954414;29;20421;-80
2022/11/25 04:37:44;;;;;;;;;;;;;;;;;;4955802;28;19918;-80
2022/11/25 04:40:09;;;;;;;;;;;;;;;;;;4958533;29;20366;-79
2022/11/25 04:42:36;;;;;;;;;;;;;;;;;;4959167;29;19915;-79
2022/11/25 04:45:05;;;;;;;;;;;;;;;;;;4960786;29;20400;-79
2022/11/25 04:47:30;;;;;;;;;;;;;;;;;;4960991;29;19997;-79
2022/11/25 04:49:56;;;;;;;;;;;;;;;;;;4960796;29;19917;-80
2022/11/25 04:52:21;;;;;;;;;;;;;;;;;;4959892;29;20008;-79
2022/11/25 04:54:47;;;;;;;;;;;;;;;;;;4959597;29;19926;-79
2022/11/25 04:57:13;;;;;;;;;;;;;;;;;;4960450;29;20070;-79
2022/11/25 04:59:38;;;;;;;;;;;;;;;;;;4944237;29;19915;-79
2022/11/25 05:02:04;;;;;;;;;;;;;;;;;;4930043;29;19938;-79
2022/11/25 05:04:37;;;;;;;;;;;;;;;;;;4960008;29;20081;-80
2022/11/25 05:07:02;;;;;;;;;;;;;;;;;;4961222;29;19938;-80
2022/11/25 05:09:28;;;;;;;;;;;;;;;;;;4960662;29;19922;-79
2022/11/25 05:12:05;;;;;;;;;;;;;;;;;;4945909;29;20385;-80
2022/11/25 05:14:31;;;;;;;;;;;;;;;;;;4960796;29;19914;-79
2022/11/25 05:16:56;;;;;;;;;;;;;;;;;;4960504;29;19921;-79
2022/11/25 05:19:22;;;;;;;;;;;;;;;;;;4961171;29;19969;-79
2022/11/25 05:21:47;;;;;;;;;;;;;;;;;;4959746;29;20006;-80
2022/11/25 05:24:13;;;;;;;;;;;;;;;;;;4960164;29;19915;-80
2022/11/25 05:26:38;;;;;;;;;;;;;;;;;;4943771;29;19921;-79
2022/11/25 05:29:04;;;;;;;;;;;;;;;;;;4963318;29;19964;-79
2022/11/25 05:31:31;;;;;;;;;;;;;;;;;;4965383;29;19919;-80
2022/11/25 05:33:56;;;;;;;;;;;;;;;;;;4962590;29;19914;-79
2022/11/25 05:36:22;;;;;;;;;;;;;;;;;;4942175;29;20022;-79
2022/11/25 05:38:48;;;;;;;;;;;;;;;;;;4944368;29;20389;-80
2022/11/25 05:41:20;;;;;;;;;;;;;;;;;;4959102;29;19914;-79
2022/11/25 05:43:46;;;;;;;;;;;;;;;;;;4958019;29;19962;-79
2022/11/25 05:46:11;;;;;;;;;;;;;;;;;;4959226;29;19914;-79
2022/11/25 05:48:42;;;;;;;;;;;;;;;;;;4943562;28;19911;-79
2022/11/25 05:51:08;;;;;;;;;;;;;;;;;;4958844;29;20289;-79
2022/11/25 05:53:33;;;;;;;;;;;;;;;;;;4960117;29;19911;-80
2022/11/25 05:56:00;;;;;;;;;;;;;;;;;;4961810;29;19921;-80
2022/11/25 05:58:45;;;;;;;;;;;;;;;;;;4939488;28;19918;-80
2022/11/25 06:01:11;;;;;;;;;;;;;;;;;;4958040;29;19915;-80
2022/11/25 06:03:37;;;;;;;;;;;;;;;;;;4959640;29;20408;-80
2022/11/25 06:06:02;;;;;;;;;;;;;;;;;;4957430;29;19918;-80
2022/11/25 06:08:27;;;;;;;;;;;;;;;;;;4959095;29;20333;-80
2022/11/25 06:10:53;;;;;;;;;;;;;;;;;;4941981;29;19953;-80
2022/11/25 06:13:18;;;;;;;;;;;;;;;;;;4958452;29;19937;-81
2022/11/25 06:15:43;;;;;;;;;;;;;;;;;;4957458;29;19936;-80
2022/11/25 06:18:12;;;;;;;;;;;;;;;;;;4958995;29;19919;-81
2022/11/25 06:20:37;;;;;;;;;;;;;;;;;;4960925;29;20381;-80
2022/11/25 06:23:02;;;;;;;;;;;;;;;;;;4957220;29;19922;-80
2022/11/25 06:25:31;;;;;;;;;;;;;;;;;;4941572;29;19965;-79
2022/11/25 06:27:56;;;;;;;;;;;;;;;;;;4956797;29;20325;-80
2022/11/25 06:30:22;;;;;;;;;;;;;;;;;;4956372;29;19914;-80
2022/11/25 06:33:00;;;;;;;;;;;;;;;;;;4940858;29;19921;-80
2022/11/25 06:35:25;;;;;;;;;;;;;;;;;;4956919;29;20322;-80
2022/11/25 06:37:54;;;;;;;;;;;;;;;;;;4956674;29;19995;-79
2022/11/25 06:40:20;;;;;;;;;;;;;;;;;;4958949;29;20416;-80
2022/11/25 06:42:45;;;;;;;;;;;;;;;;;;4958235;29;20294;-80
2022/11/25 06:45:11;;;;;;;;;;;;;;;;;;4965378;29;19950;-79
2022/11/25 06:47:36;;;;;;;;;;;;;;;;;;4969838;29;20366;-79
2022/11/25 06:50:01;;;;;;;;;;;;;;;;;;4971152;29;19922;-80
2022/11/25 06:52:27;;;;;;;;;;;;;;;;;;4958773;29;20027;-80
2022/11/25 06:54:53;;;;;;;;;;;;;;;;;;4958388;29;20013;-80
2022/11/25 06:57:18;;;;;;;;;;;;;;;;;;4958500;29;19914;-80
2022/11/25 06:59:43;;;;;;;;;;;;;;;;;;4958927;29;20013;-80
2022/11/25 07:02:09;;;;;;;;;;;;;;;;;;4958261;28;20413;-80
2022/11/25 07:04:34;;;;;;;;;;;;;;;;;;4942450;29;19966;-80
2022/11/25 07:07:00;;;;;;;;;;;;;;;;;;4958297;28;19934;-80
2022/11/25 07:09:25;;;;;;;;;;;;;;;;;;4957906;29;19914;-80
2022/11/25 07:11:50;;;;;;;;;;;;;;;;;;4960293;29;19915;-80
2022/11/25 07:14:16;;;;;;;;;;;;;;;;;;4964529;29;19915;-80
2022/11/25 07:16:41;;;;;;;;;;;;;;;;;;4958167;29;20379;-80
2022/11/25 07:19:07;;;;;;;;;;;;;;;;;;4960241;29;19918;-79
2022/11/25 07:21:32;;;;;;;;;;;;;;;;;;4968725;29;20310;-79
2022/11/25 07:23:57;;;;;;;;;;;;;;;;;;4960450;29;20338;-80
2022/11/25 07:26:23;;;;;;;;;;;;;;;;;;4942268;29;19921;-80
2022/11/25 07:28:49;;;;;;;;;;;;;;;;;;4940977;29;19969;-79
2022/11/25 07:31:14;;;;;;;;;;;;;;;;;;4957923;29;19914;-80
2022/11/25 07:33:39;;;;;;;;;;;;;;;;;;4957425;29;20012;-80
2022/11/25 07:36:05;;;;;;;;;;;;;;;;;;4959507;29;19915;-81
2022/11/25 07:38:30;;;;;;;;;;;;;;;;;;4961359;29;20449;-79
2022/11/25 07:40:55;;;;;;;;;;;;;;;;;;4966771;29;20366;-79
2022/11/25 07:43:21;;;;;;;;;;;;;;;;;;4946685;29;19911;-80
2022/11/25 07:45:46;;;;;;;;;;;;;;;;;;4957323;29;19922;-80
2022/11/25 07:48:12;;;;;;;;;;;;;;;;;;4957585;29;20303;-80
2022/11/25 07:50:37;;;;;;;;;;;;;;;;;;4958715;29;19919;-80
2022/11/25 07:53:03;;;;;;;;;;;;;;;;;;4958211;29;19938;-81
2022/11/25 07:55:28;;;;;;;;;;;;;;;;;;4957662;29;19915;-80
2022/11/25 07:57:53;;;;;;;;;;;;;;;;;;4957958;29;19925;-80
2022/11/25 08:00:19;;;;;;;;;;;;;;;;;;4956948;29;19937;-80
2022/11/25 08:02:44;;;;;;;;;;;;;;;;;;4957161;29;20001;-80
2022/11/25 08:05:10;;;;;;;;;;;;;;;;;;4957399;29;19918;-80
2022/11/25 10:24:24;;;;;;;;;;;;;;;;;;5713463;23;20096;-86
2022/11/25 10:59:13;;;;;;;;;;;;;;;;;;6029879;23;19945;-86
2022/11/25 11:06:51;;;;;;;;;;;;;;;;;;4960379;28;19911;-90
2022/11/25 11:36:47;;;;;;;;;;;;;;;;;;5414221;23;19910;-84
2022/11/25 12:03:22;;;;;;;;;;;;;;;;;;5534918;23;19910;-85
2022/11/25 12:05:54;;;;;;;;;;;;;;;;;;4978820;28;19914;-83
2022/11/25 12:08:20;;;;;;;;;;;;;;;;;;4980547;28;19918;-85
2022/11/25 12:10:45;;;;;;;;;;;;;;;;;;4979539;28;19907;-83
2022/11/25 12:13:11;;;;;;;;;;;;;;;;;;4979057;28;19929;-84
2022/11/25 12:15:37;;;;;;;;;;;;;;;;;;4980171;28;19903;-83
2022/11/25 12:18:02;;;;;;;;;;;;;;;;;;4963391;28;19950;-84
2022/11/25 12:20:28;;;;;;;;;;;;;;;;;;5016292;23;19937;-86
2022/11/25 12:22:54;;;;;;;;;;;;;;;;;;4959160;28;19906;-84
2022/11/25 12:25:22;;;;;;;;;;;;;;;;;;4944083;29;19903;-86
2022/11/25 12:27:48;;;;;;;;;;;;;;;;;;4943031;29;19941;-84
2022/11/25 12:30:14;;;;;;;;;;;;;;;;;;4942277;29;19942;-87
2022/11/25 12:32:40;;;;;;;;;;;;;;;;;;4941998;29;19915;-85
2022/11/25 12:35:06;;;;;;;;;;;;;;;;;;4939383;29;19939;-86
2022/11/25 12:37:33;;;;;;;;;;;;;;;;;;4959040;28;19923;-85
2022/11/25 12:39:59;;;;;;;;;;;;;;;;;;4943641;28;19946;-84
2022/11/25 12:42:25;;;;;;;;;;;;;;;;;;4928411;29;19926;-85
2022/11/25 12:44:52;;;;;;;;;;;;;;;;;;5186148;23;19953;-84
2022/11/25 12:49:53;;;;;;;;;;;;;;;;;;5585098;23;19927;-86
2022/11/25 12:52:26;;;;;;;;;;;;;;;;;;4976311;28;19918;-85
2022/11/25 13:05:35;;;;;;;;;;;;;;;;;;5993484;23;20614;-89
2022/11/25 13:08:00;;;;;;;;;;;;;;;;;;5498706;23;19924;-90
2022/11/25 13:10:28;;;;;;;;;;;;;;;;;;4963067;28;19918;-85
2022/11/25 13:12:54;;;;;;;;;;;;;;;;;;4963399;28;19918;-86
2022/11/25 13:15:20;;;;;;;;;;;;;;;;;;4944592;29;19910;-90
2022/11/25 13:17:47;;;;;;;;;;;;;;;;;;4958940;29;19919;-89
2022/11/25 13:20:22;;;;;;;;;;;;;;;;;;4943513;29;19938;-88
2022/11/25 13:22:52;;;;;;;;;;;;;;;;;;4947507;28;19942;-86
2022/11/25 13:30:36;;;;;;;;;;;;;;;;;;5984176;23;21161;-87
2022/11/25 13:33:14;;;;;;;;;;;;;;;;;;4981938;28;19902;-88
2022/11/25 13:38:24;;;;;;;;;;;;;;;;;;5245095;23;19918;-85
2022/11/25 13:40:50;;;;;;;;;;;;;;;;;;5088054;23;19926;-87
2022/11/25 13:43:25;;;;;;;;;;;;;;;;;;4967100;28;19957;-88
2022/11/25 13:48:35;;;;;;;;;;;;;;;;;;5946889;23;20734;-89
2022/11/25 13:53:51;;;;;;;;;;;;;;;;;;5641226;23;19914;-88
2022/11/25 14:04:25;;;;;;;;;;;;;;;;;;5148543;23;19994;-89
2022/11/25 14:06:51;;;;;;;;;;;;;;;;;;4962251;23;19926;-79
2022/11/25 14:09:16;;;;;;;;;;;;;;;;;;4942417;29;19915;-79
2022/11/25 14:11:42;;;;;;;;;;;;;;;;;;4957649;28;19941;-79
2022/11/25 14:14:07;;;;;;;;;;;;;;;;;;4968702;29;19925;-79
2022/11/25 14:16:33;;;;;;;;;;;;;;;;;;4944946;29;19911;-78
2022/11/25 14:18:58;;;;;;;;;;;;;;;;;;4939554;29;19969;-79
2022/11/25 14:21:23;;;;;;;;;;;;;;;;;;4938294;29;20268;-80
2022/11/25 14:23:49;;;;;;;;;;;;;;;;;;4940755;29;20013;-79
2022/11/25 14:26:15;;;;;;;;;;;;;;;;;;4936023;29;19922;-80
2022/11/25 14:28:40;;;;;;;;;;;;;;;;;;4965230;29;20453;-80
2022/11/25 14:31:05;;;;;;;;;;;;;;;;;;4938913;29;19995;-79
2022/11/25 14:33:31;;;;;;;;;;;;;;;;;;4938685;29;19915;-79
2022/11/25 14:35:56;;;;;;;;;;;;;;;;;;4938054;29;19966;-79
2022/11/25 14:38:22;;;;;;;;;;;;;;;;;;4939136;29;19974;-79
2022/11/25 14:40:47;;;;;;;;;;;;;;;;;;4939244;29;20390;-79
2022/11/25 14:43:13;;;;;;;;;;;;;;;;;;4938573;29;19918;-79
2022/11/25 14:45:38;;;;;;;;;;;;;;;;;;4938635;29;20378;-80
2022/11/25 14:48:04;;;;;;;;;;;;;;;;;;4938058;29;20375;-80
2022/11/25 14:50:29;;;;;;;;;;;;;;;;;;4938456;29;20434;-80
2022/11/25 14:52:54;;;;;;;;;;;;;;;;;;4939697;29;19969;-80
2022/11/25 14:55:20;;;;;;;;;;;;;;;;;;4938408;29;19911;-79
2022/11/25 14:57:45;;;;;;;;;;;;;;;;;;4937484;29;20358;-79
2022/11/25 15:00:11;;;;;;;;;;;;;;;;;;4938419;29;19915;-79
2022/11/25 15:02:36;;;;;;;;;;;;;;;;;;4938373;29;20295;-79
2022/11/25 15:05:02;;;;;;;;;;;;;;;;;;4938173;29;19915;-79
2022/11/25 15:07:28;;;;;;;;;;;;;;;;;;4937595;29;19970;-80
2022/11/25 15:09:53;;;;;;;;;;;;;;;;;;4937003;29;19915;-79
2022/11/25 15:12:19;;;;;;;;;;;;;;;;;;4939312;29;19915;-79
2022/11/25 15:14:44;;;;;;;;;;;;;;;;;;4936606;29;19986;-79
2022/11/25 15:17:10;;;;;;;;;;;;;;;;;;4935864;29;19911;-80
2022/11/25 15:19:35;;;;;;;;;;;;;;;;;;4936534;29;19926;-80
2022/11/25 15:22:01;;;;;;;;;;;;;;;;;;4936045;29;19914;-80
2022/11/25 15:24:26;;;;;;;;;;;;;;;;;;4936445;29;19962;-79
2022/11/25 15:26:51;;;;;;;;;;;;;;;;;;4935302;29;19915;-81
2022/11/25 15:29:17;;;;;;;;;;;;;;;;;;4952188;29;19915;-80
2022/11/25 15:31:42;;;;;;;;;;;;;;;;;;4939125;29;19918;-80
2022/11/25 15:34:08;;;;;;;;;;;;;;;;;;4922239;29;19918;-80
2022/11/25 15:36:33;;;;;;;;;;;;;;;;;;4936847;29;20397;-79
2022/11/25 15:38:59;;;;;;;;;;;;;;;;;;4937690;29;19919;-79
2022/11/25 15:41:24;;;;;;;;;;;;;;;;;;4938359;29;19938;-80
2022/11/25 15:43:49;;;;;;;;;;;;;;;;;;4939611;29;19919;-79
2022/11/25 15:46:15;;;;;;;;;;;;;;;;;;4938508;29;20018;-79
2022/11/25 15:48:40;;;;;;;;;;;;;;;;;;4937123;29;19922;-80
2022/11/25 15:51:06;;;;;;;;;;;;;;;;;;4936523;29;20401;-79
2022/11/25 15:53:35;;;;;;;;;;;;;;;;;;4935675;29;19915;-80
2022/11/25 15:56:01;;;;;;;;;;;;;;;;;;4935953;29;20006;-79
2022/11/25 15:58:26;;;;;;;;;;;;;;;;;;4938407;29;19978;-79
2022/11/25 16:00:51;;;;;;;;;;;;;;;;;;4938641;29;19915;-79
2022/11/25 16:03:17;;;;;;;;;;;;;;;;;;4937153;29;20014;-79
2022/11/25 16:05:42;;;;;;;;;;;;;;;;;;4939077;29;19915;-79
2022/11/25 16:08:08;;;;;;;;;;;;;;;;;;4937383;29;20488;-79
2022/11/25 16:10:33;;;;;;;;;;;;;;;;;;4938299;29;19922;-79
2022/11/25 16:12:58;;;;;;;;;;;;;;;;;;4922288;29;19969;-79
2022/11/25 16:15:24;;;;;;;;;;;;;;;;;;4922841;29;20017;-79
2022/11/25 16:17:49;;;;;;;;;;;;;;;;;;4937620;29;19919;-79
2022/11/25 16:20:15;;;;;;;;;;;;;;;;;;4939777;29;20444;-80
2022/11/25 16:22:40;;;;;;;;;;;;;;;;;;4941756;29;19918;-79
2022/11/25 16:25:05;;;;;;;;;;;;;;;;;;4940776;29;19921;-78
2022/11/25 16:27:31;;;;;;;;;;;;;;;;;;4922535;29;20010;-79
2022/11/25 16:29:56;;;;;;;;;;;;;;;;;;4923039;29;19918;-79
2022/11/25 16:32:22;;;;;;;;;;;;;;;;;;4939828;29;19922;-79
2022/11/25 16:34:47;;;;;;;;;;;;;;;;;;4941335;29;20004;-78
2022/11/25 16:37:13;;;;;;;;;;;;;;;;;;4945075;29;20382;-79
2022/11/25 16:39:38;;;;;;;;;;;;;;;;;;4927640;29;20294;-79
2022/11/25 16:42:03;;;;;;;;;;;;;;;;;;4945271;29;19950;-78
2022/11/25 16:44:29;;;;;;;;;;;;;;;;;;4946873;29;19915;-78
2022/11/25 16:46:54;;;;;;;;;;;;;;;;;;4945091;29;19934;-79
2022/11/25 16:49:20;;;;;;;;;;;;;;;;;;4943863;29;19971;-79
2022/11/25 16:51:45;;;;;;;;;;;;;;;;;;4942311;29;19915;-79
2022/11/25 16:54:15;;;;;;;;;;;;;;;;;;4941345;29;20001;-78
2022/11/25 16:56:40;;;;;;;;;;;;;;;;;;4940035;29;20367;-79
2022/11/25 16:59:05;;;;;;;;;;;;;;;;;;4939035;29;19926;-79
2022/11/25 17:01:31;;;;;;;;;;;;;;;;;;4941360;29;20298;-79
2022/11/25 17:03:56;;;;;;;;;;;;;;;;;;4939633;29;19921;-79
2022/11/25 17:06:22;;;;;;;;;;;;;;;;;;4939897;29;19915;-79
2022/11/25 17:08:47;;;;;;;;;;;;;;;;;;4940071;29;19926;-79
2022/11/25 17:11:12;;;;;;;;;;;;;;;;;;4940189;29;19922;-79
2022/11/25 17:13:38;;;;;;;;;;;;;;;;;;4923462;29;20362;-80
2022/11/25 17:16:03;;;;;;;;;;;;;;;;;;4941132;29;20299;-79
2022/11/25 17:18:29;;;;;;;;;;;;;;;;;;4939705;29;19962;-79
2022/11/25 17:20:54;;;;;;;;;;;;;;;;;;4940602;29;19922;-79
2022/11/25 17:23:22;;;;;;;;;;;;;;;;;;4940069;29;19915;-79
2022/11/25 17:25:47;;;;;;;;;;;;;;;;;;4939394;29;20379;-79
2022/11/25 17:28:12;;;;;;;;;;;;;;;;;;4940618;29;19915;-79
2022/11/25 17:30:38;;;;;;;;;;;;;;;;;;4940364;29;19982;-79
2022/11/25 17:33:03;;;;;;;;;;;;;;;;;;4940106;29;19925;-79
2022/11/25 17:35:29;;;;;;;;;;;;;;;;;;4941541;29;19915;-79
2022/11/25 17:37:54;;;;;;;;;;;;;;;;;;4942672;29;20017;-79
2022/11/25 17:40:19;;;;;;;;;;;;;;;;;;4924798;29;19915;-79
2022/11/25 17:42:47;;;;;;;;;;;;;;;;;;4941723;29;19915;-80
2022/11/25 17:45:13;;;;;;;;;;;;;;;;;;4941798;29;20156;-79
2022/11/25 17:47:38;;;;;;;;;;;;;;;;;;4943760;29;20378;-80
2022/11/25 17:50:03;;;;;;;;;;;;;;;;;;4947599;29;20259;-79
2022/11/25 17:52:29;;;;;;;;;;;;;;;;;;4946934;29;19922;-79
2022/11/25 17:54:54;;;;;;;;;;;;;;;;;;4943645;29;19914;-80
2022/11/25 17:57:20;;;;;;;;;;;;;;;;;;4942227;29;19915;-79
2022/11/25 17:59:45;;;;;;;;;;;;;;;;;;4941220;29;19915;-80
2022/11/25 18:02:10;;;;;;;;;;;;;;;;;;4941562;29;19914;-80
2022/11/25 18:04:37;;;;;;;;;;;;;;;;;;4940744;29;20453;-80
2022/11/25 18:07:03;;;;;;;;;;;;;;;;;;4941854;29;19919;-79
2022/11/25 18:09:28;;;;;;;;;;;;;;;;;;4939365;29;19922;-80
2022/11/25 18:11:54;;;;;;;;;;;;;;;;;;4941941;29;19914;-80
2022/11/25 18:14:19;;;;;;;;;;;;;;;;;;4939616;29;20286;-80
2022/11/25 18:16:44;;;;;;;;;;;;;;;;;;4940521;29;19915;-79
2022/11/25 18:19:12;;;;;;;;;;;;;;;;;;4954777;29;19950;-79
2022/11/25 18:21:40;;;;;;;;;;;;;;;;;;4939762;29;19921;-79
2022/11/25 18:24:05;;;;;;;;;;;;;;;;;;4940612;29;20429;-79
2022/11/25 18:26:33;;;;;;;;;;;;;;;;;;4955993;29;19919;-79
2022/11/25 18:28:58;;;;;;;;;;;;;;;;;;4938225;29;19970;-79
2022/11/25 18:31:24;;;;;;;;;;;;;;;;;;4922581;29;19922;-79
2022/11/25 18:33:49;;;;;;;;;;;;;;;;;;4938688;29;20005;-79
2022/11/25 18:36:17;;;;;;;;;;;;;;;;;;4937986;29;19919;-78
2022/11/25 18:38:44;;;;;;;;;;;;;;;;;;4938259;29;20455;-78
2022/11/25 18:41:09;;;;;;;;;;;;;;;;;;4938417;29;20080;-79
2022/11/25 18:43:36;;;;;;;;;;;;;;;;;;4938084;29;20046;-79
2022/11/25 18:46:01;;;;;;;;;;;;;;;;;;4937854;29;19922;-79
2022/11/25 18:48:27;;;;;;;;;;;;;;;;;;4936264;29;19918;-79
2022/11/25 18:50:52;;;;;;;;;;;;;;;;;;4937557;29;19914;-78
2022/11/25 18:53:18;;;;;;;;;;;;;;;;;;4938139;29;19915;-79
2022/11/25 18:55:43;;;;;;;;;;;;;;;;;;4937805;29;19915;-79
2022/11/25 18:58:09;;;;;;;;;;;;;;;;;;4942405;29;19919;-78
2022/11/25 19:00:34;;;;;;;;;;;;;;;;;;4943403;29;19985;-79
2022/11/25 19:02:59;;;;;;;;;;;;;;;;;;4940527;29;19921;-78
2022/11/25 19:05:25;;;;;;;;;;;;;;;;;;4938728;29;20391;-79
2022/11/25 19:07:54;;;;;;;;;;;;;;;;;;4942082;29;19919;-79
2022/11/25 19:10:20;;;;;;;;;;;;;;;;;;4936471;29;19915;-79
2022/11/25 19:12:45;;;;;;;;;;;;;;;;;;4936419;29;19923;-79
2022/11/25 19:15:11;;;;;;;;;;;;;;;;;;4937716;29;20383;-79
2022/11/25 19:17:36;;;;;;;;;;;;;;;;;;4937472;29;20379;-79
2022/11/25 19:20:01;;;;;;;;;;;;;;;;;;4937617;29;19921;-78
2022/11/25 19:22:30;;;;;;;;;;;;;;;;;;4936553;29;20013;-78
2022/11/25 19:24:57;;;;;;;;;;;;;;;;;;4937123;29;19911;-79
2022/11/25 19:27:23;;;;;;;;;;;;;;;;;;4936752;29;20362;-79
2022/11/25 19:29:48;;;;;;;;;;;;;;;;;;4935900;29;19926;-79
2022/11/25 19:32:14;;;;;;;;;;;;;;;;;;4937244;29;19950;-79
2022/11/25 19:34:42;;;;;;;;;;;;;;;;;;4935811;29;19919;-79
2022/11/25 19:37:08;;;;;;;;;;;;;;;;;;4936535;29;20394;-79
2022/11/25 19:39:33;;;;;;;;;;;;;;;;;;4936960;29;19922;-78
2022/11/25 19:41:59;;;;;;;;;;;;;;;;;;4937364;29;19922;-78
2022/11/25 19:44:24;;;;;;;;;;;;;;;;;;4937459;29;19914;-79
2022/11/25 19:46:50;;;;;;;;;;;;;;;;;;4937175;29;19938;-79
2022/11/25 19:49:15;;;;;;;;;;;;;;;;;;4935778;29;19919;-79
2022/11/25 19:51:40;;;;;;;;;;;;;;;;;;4937600;29;19914;-79
2022/11/25 19:54:06;;;;;;;;;;;;;;;;;;4937122;29;20430;-79
2022/11/25 19:56:31;;;;;;;;;;;;;;;;;;4937120;29;19915;-79
2022/11/25 19:58:57;;;;;;;;;;;;;;;;;;4936427;29;20009;-79
2022/11/25 20:01:22;;;;;;;;;;;;;;;;;;4935301;29;20347;-79
2022/11/25 20:03:47;;;;;;;;;;;;;;;;;;4936278;29;19919;-79
2022/11/25 20:06:13;;;;;;;;;;;;;;;;;;4936354;29;19922;-79
2022/11/25 20:08:38;;;;;;;;;;;;;;;;;;4936279;29;19966;-79
2022/11/25 20:11:05;;;;;;;;;;;;;;;;;;4936460;29;19962;-79
2022/11/25 20:13:30;;;;;;;;;;;;;;;;;;4936137;29;20413;-79
2022/11/25 20:15:56;;;;;;;;;;;;;;;;;;4936113;29;19915;-78
2022/11/25 20:18:21;;;;;;;;;;;;;;;;;;4936564;29;19919;-79
2022/11/25 20:20:47;;;;;;;;;;;;;;;;;;4935794;29;20386;-79
2022/11/25 20:23:12;;;;;;;;;;;;;;;;;;4919809;29;19919;-79
2022/11/25 20:25:37;;;;;;;;;;;;;;;;;;4935306;29;19926;-78
2022/11/25 20:28:03;;;;;;;;;;;;;;;;;;4936397;29;20386;-79
2022/11/25 20:30:28;;;;;;;;;;;;;;;;;;4936721;29;19923;-79
2022/11/25 20:32:53;;;;;;;;;;;;;;;;;;4936608;29;19955;-80
2022/11/25 20:35:19;;;;;;;;;;;;;;;;;;4936500;29;20354;-79
2022/11/25 20:37:56;;;;;;;;;;;;;;;;;;4936542;29;19925;-79
2022/11/25 20:40:21;;;;;;;;;;;;;;;;;;4936390;29;20391;-78
2022/11/25 20:42:47;;;;;;;;;;;;;;;;;;4936079;29;19911;-79
2022/11/25 20:45:12;;;;;;;;;;;;;;;;;;4934947;29;20022;-78
2022/11/25 20:47:38;;;;;;;;;;;;;;;;;;4936298;29;19926;-79
2022/11/25 20:50:03;;;;;;;;;;;;;;;;;;4935160;29;19922;-79
2022/11/25 20:52:29;;;;;;;;;;;;;;;;;;4935801;29;19926;-79
2022/11/25 20:54:54;;;;;;;;;;;;;;;;;;4935309;29;20397;-79
2022/11/25 20:57:19;;;;;;;;;;;;;;;;;;4935449;29;19915;-79
2022/11/25 20:59:45;;;;;;;;;;;;;;;;;;4935351;29;19919;-79
2022/11/25 21:02:10;;;;;;;;;;;;;;;;;;4936618;29;19938;-78
2022/11/25 21:04:36;;;;;;;;;;;;;;;;;;4935405;29;19963;-79